sensor_id;sensor_type;location;lat;lon;timestamp;P1;durP1;ratioP1;P2;durP2;ratioP2
11893;SDS011;6006;49.696;8.662;2024-01-25T00:01:14;5.20;;;1.30;;
11893;SDS011;6006;49.696;8.662;2024-01-25T00:03:41;5.73;;;1.27;;
11893;SDS011;6006;49.696;8.662;2024-01-25T00:06:11;4.47;;;1.20;;
11893;SDS011;6006;49.696;8.662;2024-01-25T00:08:38;5.13;;;1.07;;
11893;SDS011;6006;49.696;8.662;2024-01-25T00:11:05;3.30;;;1.20;;
11893;SDS011;6006;49.696;8.662;2024-01-25T00:13:32;6.27;;;1.53;;
11893;SDS011;6006;49.696;8.662;2024-01-25T00:15:59;7.80;;;1.37;;
11893;SDS011;6006;49.696;8.662;2024-01-25T00:18:26;9.23;;;1.77;;
11893;SDS011;6006;49.696;8.662;2024-01-25T00:20:54;6.10;;;2.00;;
11893;SDS011;6006;49.696;8.662;2024-01-25T00:23:23;2.50;;;1.47;;
11893;SDS011;6006;49.696;8.662;2024-01-25T00:25:50;3.67;;;1.23;;
11893;SDS011;6006;49.696;8.662;2024-01-25T00:28:16;4.20;;;1.30;;
11893;SDS011;6006;49.696;8.662;2024-01-25T00:30:43;2.53;;;1.30;;
11893;SDS011;6006;49.696;8.662;2024-01-25T00:33:10;3.97;;;1.07;;
11893;SDS011;6006;49.696;8.662;2024-01-25T00:35:37;3.07;;;1.37;;
11893;SDS011;6006;49.696;8.662;2024-01-25T00:38:05;1.97;;;1.20;;
11893;SDS011;6006;49.696;8.662;2024-01-25T00:40:34;9.17;;;1.87;;
11893;SDS011;6006;49.696;8.662;2024-01-25T00:43:01;3.70;;;1.10;;
11893;SDS011;6006;49.696;8.662;2024-01-25T00:45:29;4.93;;;1.50;;
11893;SDS011;6006;49.696;8.662;2024-01-25T00:47:56;4.30;;;1.20;;
11893;SDS011;6006;49.696;8.662;2024-01-25T00:50:24;1.87;;;1.10;;
11893;SDS011;6006;49.696;8.662;2024-01-25T00:52:52;6.80;;;1.53;;
11893;SDS011;6006;49.696;8.662;2024-01-25T00:55:19;4.07;;;1.23;;
11893;SDS011;6006;49.696;8.662;2024-01-25T00:57:48;2.30;;;0.73;;
11893;SDS011;6006;49.696;8.662;2024-01-25T01:00:17;3.93;;;1.30;;
11893;SDS011;6006;49.696;8.662;2024-01-25T01:02:44;2.67;;;1.20;;
11893;SDS011;6006;49.696;8.662;2024-01-25T01:05:12;4.27;;;1.27;;
11893;SDS011;6006;49.696;8.662;2024-01-25T01:07:40;3.30;;;1.27;;
11893;SDS011;6006;49.696;8.662;2024-01-25T01:10:08;3.80;;;1.43;;
11893;SDS011;6006;49.696;8.662;2024-01-25T01:12:35;10.83;;;1.50;;
11893;SDS011;6006;49.696;8.662;2024-01-25T01:15:04;10.90;;;1.60;;
11893;SDS011;6006;49.696;8.662;2024-01-25T01:17:31;3.30;;;1.90;;
11893;SDS011;6006;49.696;8.662;2024-01-25T01:19:58;6.17;;;1.50;;
11893;SDS011;6006;49.696;8.662;2024-01-25T01:22:25;3.27;;;1.47;;
11893;SDS011;6006;49.696;8.662;2024-01-25T01:24:52;2.77;;;1.30;;
11893;SDS011;6006;49.696;8.662;2024-01-25T01:27:19;4.57;;;1.47;;
11893;SDS011;6006;49.696;8.662;2024-01-25T01:29:48;4.87;;;1.93;;
11893;SDS011;6006;49.696;8.662;2024-01-25T01:32:16;6.90;;;1.83;;
11893;SDS011;6006;49.696;8.662;2024-01-25T01:34:44;3.63;;;1.33;;
11893;SDS011;6006;49.696;8.662;2024-01-25T01:37:11;4.97;;;1.97;;
11893;SDS011;6006;49.696;8.662;2024-01-25T01:39:37;1.97;;;1.47;;
11893;SDS011;6006;49.696;8.662;2024-01-25T01:42:04;2.80;;;1.43;;
11893;SDS011;6006;49.696;8.662;2024-01-25T01:44:32;4.50;;;1.30;;
11893;SDS011;6006;49.696;8.662;2024-01-25T01:46:58;5.90;;;1.80;;
11893;SDS011;6006;49.696;8.662;2024-01-25T01:49:27;5.80;;;1.60;;
11893;SDS011;6006;49.696;8.662;2024-01-25T01:51:54;8.77;;;1.50;;
11893;SDS011;6006;49.696;8.662;2024-01-25T01:54:21;5.20;;;1.70;;
11893;SDS011;6006;49.696;8.662;2024-01-25T01:56:48;4.83;;;1.57;;
11893;SDS011;6006;49.696;8.662;2024-01-25T01:59:15;3.20;;;1.33;;
11893;SDS011;6006;49.696;8.662;2024-01-25T02:01:43;7.20;;;1.83;;
11893;SDS011;6006;49.696;8.662;2024-01-25T02:04:09;4.67;;;1.20;;
11893;SDS011;6006;49.696;8.662;2024-01-25T02:06:38;7.27;;;1.63;;
11893;SDS011;6006;49.696;8.662;2024-01-25T02:09:06;4.87;;;1.07;;
11893;SDS011;6006;49.696;8.662;2024-01-25T02:11:33;3.77;;;1.47;;
11893;SDS011;6006;49.696;8.662;2024-01-25T02:13:59;7.87;;;1.80;;
11893;SDS011;6006;49.696;8.662;2024-01-25T02:16:26;2.97;;;1.40;;
11893;SDS011;6006;49.696;8.662;2024-01-25T02:18:53;6.23;;;1.17;;
11893;SDS011;6006;49.696;8.662;2024-01-25T02:21:22;6.10;;;1.30;;
11893;SDS011;6006;49.696;8.662;2024-01-25T02:23:51;4.27;;;1.50;;
11893;SDS011;6006;49.696;8.662;2024-01-25T02:26:17;2.30;;;0.97;;
11893;SDS011;6006;49.696;8.662;2024-01-25T02:28:44;7.00;;;2.10;;
11893;SDS011;6006;49.696;8.662;2024-01-25T02:31:11;3.53;;;1.20;;
11893;SDS011;6006;49.696;8.662;2024-01-25T02:33:38;4.50;;;1.50;;
11893;SDS011;6006;49.696;8.662;2024-01-25T02:36:05;5.77;;;1.17;;
11893;SDS011;6006;49.696;8.662;2024-01-25T02:38:32;3.17;;;0.93;;
11893;SDS011;6006;49.696;8.662;2024-01-25T02:41:00;2.77;;;1.53;;
11893;SDS011;6006;49.696;8.662;2024-01-25T02:43:27;4.93;;;1.27;;
11893;SDS011;6006;49.696;8.662;2024-01-25T02:45:54;2.67;;;1.00;;
11893;SDS011;6006;49.696;8.662;2024-01-25T02:48:21;4.57;;;1.17;;
11893;SDS011;6006;49.696;8.662;2024-01-25T02:50:48;2.87;;;1.40;;
11893;SDS011;6006;49.696;8.662;2024-01-25T02:53:18;7.00;;;1.53;;
11893;SDS011;6006;49.696;8.662;2024-01-25T02:55:44;9.10;;;1.23;;
11893;SDS011;6006;49.696;8.662;2024-01-25T02:58:13;4.93;;;1.27;;
11893;SDS011;6006;49.696;8.662;2024-01-25T03:00:39;4.17;;;1.40;;
11893;SDS011;6006;49.696;8.662;2024-01-25T03:03:06;2.70;;;1.07;;
11893;SDS011;6006;49.696;8.662;2024-01-25T03:05:33;2.93;;;0.90;;
11893;SDS011;6006;49.696;8.662;2024-01-25T03:08:01;5.47;;;1.87;;
11893;SDS011;6006;49.696;8.662;2024-01-25T03:10:28;4.20;;;1.10;;
11893;SDS011;6006;49.696;8.662;2024-01-25T03:12:55;4.13;;;0.80;;
11893;SDS011;6006;49.696;8.662;2024-01-25T03:15:24;5.43;;;1.00;;
11893;SDS011;6006;49.696;8.662;2024-01-25T03:17:50;2.77;;;1.30;;
11893;SDS011;6006;49.696;8.662;2024-01-25T03:20:17;4.33;;;1.00;;
11893;SDS011;6006;49.696;8.662;2024-01-25T03:22:44;3.23;;;1.00;;
11893;SDS011;6006;49.696;8.662;2024-01-25T03:25:11;1.03;;;0.93;;
11893;SDS011;6006;49.696;8.662;2024-01-25T03:27:38;3.37;;;1.17;;
11893;SDS011;6006;49.696;8.662;2024-01-25T03:30:06;3.60;;;1.10;;
11893;SDS011;6006;49.696;8.662;2024-01-25T03:32:35;1.70;;;0.93;;
11893;SDS011;6006;49.696;8.662;2024-01-25T03:35:02;1.93;;;0.90;;
11893;SDS011;6006;49.696;8.662;2024-01-25T03:37:29;2.53;;;1.20;;
11893;SDS011;6006;49.696;8.662;2024-01-25T03:39:56;5.97;;;1.03;;
11893;SDS011;6006;49.696;8.662;2024-01-25T03:42:23;3.90;;;1.00;;
11893;SDS011;6006;49.696;8.662;2024-01-25T03:44:50;4.63;;;0.63;;
11893;SDS011;6006;49.696;8.662;2024-01-25T03:47:17;0.73;;;0.60;;
11893;SDS011;6006;49.696;8.662;2024-01-25T03:49:46;1.93;;;0.87;;
11893;SDS011;6006;49.696;8.662;2024-01-25T03:52:13;4.03;;;1.03;;
11893;SDS011;6006;49.696;8.662;2024-01-25T03:54:40;2.37;;;1.27;;
11893;SDS011;6006;49.696;8.662;2024-01-25T03:57:07;1.83;;;0.90;;
11893;SDS011;6006;49.696;8.662;2024-01-25T03:59:33;2.33;;;0.93;;
11893;SDS011;6006;49.696;8.662;2024-01-25T04:02:00;5.60;;;1.10;;
11893;SDS011;6006;49.696;8.662;2024-01-25T04:04:27;5.00;;;0.90;;
11893;SDS011;6006;49.696;8.662;2024-01-25T04:06:55;2.53;;;0.87;;
11893;SDS011;6006;49.696;8.662;2024-01-25T04:09:22;2.33;;;1.00;;
11893;SDS011;6006;49.696;8.662;2024-01-25T04:11:49;6.47;;;1.57;;
11893;SDS011;6006;49.696;8.662;2024-01-25T04:14:16;2.50;;;1.10;;
11893;SDS011;6006;49.696;8.662;2024-01-25T04:16:43;2.10;;;0.97;;
11893;SDS011;6006;49.696;8.662;2024-01-25T04:19:11;10.83;;;1.83;;
11893;SDS011;6006;49.696;8.662;2024-01-25T04:21:38;4.23;;;1.10;;
11893;SDS011;6006;49.696;8.662;2024-01-25T04:24:06;3.33;;;1.17;;
11893;SDS011;6006;49.696;8.662;2024-01-25T04:26:33;3.80;;;0.87;;
11893;SDS011;6006;49.696;8.662;2024-01-25T04:29:00;1.80;;;0.70;;
11893;SDS011;6006;49.696;8.662;2024-01-25T04:31:27;2.10;;;1.10;;
11893;SDS011;6006;49.696;8.662;2024-01-25T04:33:54;6.57;;;1.00;;
11893;SDS011;6006;49.696;8.662;2024-01-25T04:36:21;4.60;;;1.47;;
11893;SDS011;6006;49.696;8.662;2024-01-25T04:38:48;8.10;;;1.53;;
11893;SDS011;6006;49.696;8.662;2024-01-25T04:41:16;5.40;;;0.90;;
11893;SDS011;6006;49.696;8.662;2024-01-25T04:43:43;4.87;;;1.17;;
11893;SDS011;6006;49.696;8.662;2024-01-25T04:46:10;2.33;;;0.70;;
11893;SDS011;6006;49.696;8.662;2024-01-25T04:48:36;4.33;;;0.70;;
11893;SDS011;6006;49.696;8.662;2024-01-25T04:51:04;5.47;;;1.13;;
11893;SDS011;6006;49.696;8.662;2024-01-25T04:53:32;3.23;;;1.00;;
11893;SDS011;6006;49.696;8.662;2024-01-25T04:55:58;5.37;;;1.10;;
11893;SDS011;6006;49.696;8.662;2024-01-25T04:58:27;2.50;;;0.67;;
11893;SDS011;6006;49.696;8.662;2024-01-25T05:00:54;8.77;;;1.53;;
11893;SDS011;6006;49.696;8.662;2024-01-25T05:03:20;0.60;;;0.57;;
11893;SDS011;6006;49.696;8.662;2024-01-25T05:05:47;3.70;;;0.80;;
11893;SDS011;6006;49.696;8.662;2024-01-25T05:08:14;1.00;;;0.53;;
11893;SDS011;6006;49.696;8.662;2024-01-25T05:10:41;5.50;;;1.10;;
11893;SDS011;6006;49.696;8.662;2024-01-25T05:13:08;5.33;;;1.00;;
11893;SDS011;6006;49.696;8.662;2024-01-25T05:15:36;2.73;;;0.87;;
11893;SDS011;6006;49.696;8.662;2024-01-25T05:18:04;6.60;;;0.87;;
11893;SDS011;6006;49.696;8.662;2024-01-25T05:20:31;1.53;;;0.63;;
11893;SDS011;6006;49.696;8.662;2024-01-25T05:22:59;3.67;;;0.90;;
11893;SDS011;6006;49.696;8.662;2024-01-25T05:25:26;3.60;;;1.00;;
11893;SDS011;6006;49.696;8.662;2024-01-25T05:27:53;3.10;;;0.90;;
11893;SDS011;6006;49.696;8.662;2024-01-25T05:30:20;1.53;;;0.97;;
11893;SDS011;6006;49.696;8.662;2024-01-25T05:32:48;3.17;;;0.77;;
11893;SDS011;6006;49.696;8.662;2024-01-25T05:35:15;3.37;;;0.90;;
11893;SDS011;6006;49.696;8.662;2024-01-25T05:37:43;2.03;;;1.10;;
11893;SDS011;6006;49.696;8.662;2024-01-25T05:40:10;6.40;;;1.13;;
11893;SDS011;6006;49.696;8.662;2024-01-25T05:42:37;3.07;;;1.00;;
11893;SDS011;6006;49.696;8.662;2024-01-25T05:45:05;2.63;;;0.70;;
11893;SDS011;6006;49.696;8.662;2024-01-25T05:47:34;1.93;;;0.70;;
11893;SDS011;6006;49.696;8.662;2024-01-25T05:50:02;5.37;;;1.10;;
11893;SDS011;6006;49.696;8.662;2024-01-25T05:52:29;4.80;;;1.00;;
11893;SDS011;6006;49.696;8.662;2024-01-25T05:54:57;3.10;;;0.90;;
11893;SDS011;6006;49.696;8.662;2024-01-25T05:57:23;1.97;;;0.87;;
11893;SDS011;6006;49.696;8.662;2024-01-25T05:59:50;6.63;;;0.87;;
11893;SDS011;6006;49.696;8.662;2024-01-25T06:02:17;4.97;;;0.80;;
11893;SDS011;6006;49.696;8.662;2024-01-25T06:04:44;1.77;;;0.97;;
11893;SDS011;6006;49.696;8.662;2024-01-25T06:07:12;1.47;;;0.93;;
11893;SDS011;6006;49.696;8.662;2024-01-25T06:09:39;3.53;;;0.97;;
11893;SDS011;6006;49.696;8.662;2024-01-25T06:12:06;4.43;;;1.27;;
11893;SDS011;6006;49.696;8.662;2024-01-25T06:14:33;2.60;;;0.80;;
11893;SDS011;6006;49.696;8.662;2024-01-25T06:17:00;3.90;;;0.87;;
11893;SDS011;6006;49.696;8.662;2024-01-25T06:19:28;9.50;;;1.20;;
11893;SDS011;6006;49.696;8.662;2024-01-25T06:21:55;6.53;;;1.27;;
11893;SDS011;6006;49.696;8.662;2024-01-25T06:24:23;4.40;;;1.47;;
11893;SDS011;6006;49.696;8.662;2024-01-25T06:26:50;2.10;;;0.77;;
11893;SDS011;6006;49.696;8.662;2024-01-25T06:29:17;6.03;;;0.97;;
11893;SDS011;6006;49.696;8.662;2024-01-25T06:31:44;3.57;;;1.10;;
11893;SDS011;6006;49.696;8.662;2024-01-25T06:34:11;3.20;;;1.00;;
11893;SDS011;6006;49.696;8.662;2024-01-25T06:36:38;3.83;;;1.20;;
11893;SDS011;6006;49.696;8.662;2024-01-25T06:39:05;4.83;;;1.10;;
11893;SDS011;6006;49.696;8.662;2024-01-25T06:41:33;8.63;;;1.17;;
11893;SDS011;6006;49.696;8.662;2024-01-25T06:44:00;2.20;;;1.20;;
11893;SDS011;6006;49.696;8.662;2024-01-25T06:46:27;8.90;;;1.50;;
11893;SDS011;6006;49.696;8.662;2024-01-25T06:48:54;4.10;;;0.90;;
11893;SDS011;6006;49.696;8.662;2024-01-25T06:51:22;2.83;;;0.87;;
11893;SDS011;6006;49.696;8.662;2024-01-25T06:53:49;3.33;;;0.90;;
11893;SDS011;6006;49.696;8.662;2024-01-25T06:56:16;2.83;;;1.07;;
11893;SDS011;6006;49.696;8.662;2024-01-25T06:58:44;6.73;;;1.50;;
11893;SDS011;6006;49.696;8.662;2024-01-25T07:01:11;1.20;;;1.10;;
11893;SDS011;6006;49.696;8.662;2024-01-25T07:03:38;4.43;;;1.20;;
11893;SDS011;6006;49.696;8.662;2024-01-25T07:06:05;6.13;;;1.17;;
11893;SDS011;6006;49.696;8.662;2024-01-25T07:08:32;6.53;;;1.27;;
11893;SDS011;6006;49.696;8.662;2024-01-25T07:10:59;2.97;;;1.20;;
11893;SDS011;6006;49.696;8.662;2024-01-25T07:13:27;6.80;;;1.23;;
11893;SDS011;6006;49.696;8.662;2024-01-25T07:15:55;5.17;;;1.30;;
11893;SDS011;6006;49.696;8.662;2024-01-25T07:18:22;5.73;;;1.50;;
11893;SDS011;6006;49.696;8.662;2024-01-25T07:20:49;4.27;;;1.50;;
11893;SDS011;6006;49.696;8.662;2024-01-25T07:23:17;8.27;;;1.67;;
11893;SDS011;6006;49.696;8.662;2024-01-25T07:25:44;3.50;;;1.03;;
11893;SDS011;6006;49.696;8.662;2024-01-25T07:28:11;3.10;;;0.70;;
11893;SDS011;6006;49.696;8.662;2024-01-25T07:30:38;5.10;;;1.07;;
11893;SDS011;6006;49.696;8.662;2024-01-25T07:33:06;4.70;;;1.30;;
11893;SDS011;6006;49.696;8.662;2024-01-25T07:35:33;1.80;;;0.83;;
11893;SDS011;6006;49.696;8.662;2024-01-25T07:38:00;2.30;;;0.77;;
11893;SDS011;6006;49.696;8.662;2024-01-25T07:40:27;3.90;;;1.20;;
11893;SDS011;6006;49.696;8.662;2024-01-25T07:42:54;7.73;;;1.57;;
11893;SDS011;6006;49.696;8.662;2024-01-25T07:45:21;7.03;;;1.70;;
11893;SDS011;6006;49.696;8.662;2024-01-25T07:47:48;1.43;;;1.10;;
11893;SDS011;6006;49.696;8.662;2024-01-25T07:50:16;8.57;;;1.50;;
11893;SDS011;6006;49.696;8.662;2024-01-25T07:52:43;4.60;;;1.30;;
11893;SDS011;6006;49.696;8.662;2024-01-25T07:55:10;4.23;;;1.50;;
11893;SDS011;6006;49.696;8.662;2024-01-25T07:57:37;3.13;;;1.70;;
11893;SDS011;6006;49.696;8.662;2024-01-25T08:00:04;4.80;;;1.80;;
11893;SDS011;6006;49.696;8.662;2024-01-25T08:02:33;4.27;;;1.60;;
11893;SDS011;6006;49.696;8.662;2024-01-25T08:05:00;3.10;;;1.43;;
11893;SDS011;6006;49.696;8.662;2024-01-25T08:07:29;4.63;;;1.10;;
11893;SDS011;6006;49.696;8.662;2024-01-25T08:09:56;5.23;;;1.63;;
11893;SDS011;6006;49.696;8.662;2024-01-25T08:12:23;3.37;;;1.40;;
11893;SDS011;6006;49.696;8.662;2024-01-25T08:14:50;7.47;;;2.10;;
11893;SDS011;6006;49.696;8.662;2024-01-25T08:17:17;3.30;;;0.97;;
11893;SDS011;6006;49.696;8.662;2024-01-25T08:19:44;3.73;;;1.87;;
11893;SDS011;6006;49.696;8.662;2024-01-25T08:22:11;2.37;;;1.00;;
11893;SDS011;6006;49.696;8.662;2024-01-25T08:24:40;8.27;;;2.10;;
11893;SDS011;6006;49.696;8.662;2024-01-25T08:27:07;2.90;;;1.33;;
11893;SDS011;6006;49.696;8.662;2024-01-25T08:29:34;6.47;;;1.37;;
11893;SDS011;6006;49.696;8.662;2024-01-25T08:32:02;3.17;;;1.50;;
11893;SDS011;6006;49.696;8.662;2024-01-25T08:34:29;8.47;;;1.67;;
11893;SDS011;6006;49.696;8.662;2024-01-25T08:36:56;2.67;;;1.30;;
11893;SDS011;6006;49.696;8.662;2024-01-25T08:39:23;7.53;;;1.87;;
11893;SDS011;6006;49.696;8.662;2024-01-25T08:41:52;6.20;;;2.00;;
11893;SDS011;6006;49.696;8.662;2024-01-25T08:44:19;4.77;;;1.73;;
11893;SDS011;6006;49.696;8.662;2024-01-25T08:46:46;4.23;;;1.60;;
11893;SDS011;6006;49.696;8.662;2024-01-25T08:49:13;2.93;;;1.70;;
11893;SDS011;6006;49.696;8.662;2024-01-25T08:51:40;6.77;;;2.40;;
11893;SDS011;6006;49.696;8.662;2024-01-25T08:54:07;4.23;;;2.03;;
11893;SDS011;6006;49.696;8.662;2024-01-25T08:56:34;3.17;;;2.00;;
11893;SDS011;6006;49.696;8.662;2024-01-25T08:59:02;12.83;;;4.20;;
11893;SDS011;6006;49.696;8.662;2024-01-25T09:01:29;14.17;;;3.87;;
11893;SDS011;6006;49.696;8.662;2024-01-25T09:03:56;17.77;;;4.53;;
11893;SDS011;6006;49.696;8.662;2024-01-25T09:06:27;3.80;;;1.70;;
11893;SDS011;6006;49.696;8.662;2024-01-25T09:08:54;6.07;;;2.00;;
11893;SDS011;6006;49.696;8.662;2024-01-25T09:11:21;2.97;;;2.13;;
11893;SDS011;6006;49.696;8.662;2024-01-25T09:13:48;7.07;;;4.33;;
11893;SDS011;6006;49.696;8.662;2024-01-25T09:16:16;6.23;;;3.27;;
11893;SDS011;6006;49.696;8.662;2024-01-25T09:18:43;6.80;;;3.23;;
11893;SDS011;6006;49.696;8.662;2024-01-25T09:21:10;8.13;;;4.37;;
11893;SDS011;6006;49.696;8.662;2024-01-25T09:23:37;8.47;;;3.73;;
11893;SDS011;6006;49.696;8.662;2024-01-25T09:26:04;9.07;;;4.57;;
11893;SDS011;6006;49.696;8.662;2024-01-25T09:28:31;10.37;;;4.43;;
11893;SDS011;6006;49.696;8.662;2024-01-25T09:31:05;8.43;;;3.40;;
11893;SDS011;6006;49.696;8.662;2024-01-25T09:33:33;9.70;;;4.27;;
11893;SDS011;6006;49.696;8.662;2024-01-25T09:36:00;7.70;;;3.87;;
11893;SDS011;6006;49.696;8.662;2024-01-25T09:38:27;10.67;;;3.70;;
11893;SDS011;6006;49.696;8.662;2024-01-25T09:40:53;6.93;;;3.00;;
11893;SDS011;6006;49.696;8.662;2024-01-25T09:43:22;8.37;;;2.00;;
11893;SDS011;6006;49.696;8.662;2024-01-25T09:45:50;8.27;;;2.60;;
11893;SDS011;6006;49.696;8.662;2024-01-25T09:48:19;7.33;;;1.80;;
11893;SDS011;6006;49.696;8.662;2024-01-25T09:50:48;4.70;;;1.67;;
11893;SDS011;6006;49.696;8.662;2024-01-25T09:53:17;3.33;;;1.53;;
11893;SDS011;6006;49.696;8.662;2024-01-25T09:55:48;4.93;;;1.73;;
11893;SDS011;6006;49.696;8.662;2024-01-25T09:58:23;8.43;;;1.83;;
11893;SDS011;6006;49.696;8.662;2024-01-25T10:00:53;11.10;;;1.50;;
11893;SDS011;6006;49.696;8.662;2024-01-25T10:03:20;9.87;;;2.07;;
11893;SDS011;6006;49.696;8.662;2024-01-25T10:05:48;3.33;;;1.33;;
11893;SDS011;6006;49.696;8.662;2024-01-25T10:08:15;8.33;;;1.83;;
11893;SDS011;6006;49.696;8.662;2024-01-25T10:10:44;9.20;;;2.10;;
11893;SDS011;6006;49.696;8.662;2024-01-25T10:13:12;9.27;;;1.87;;
11893;SDS011;6006;49.696;8.662;2024-01-25T10:15:39;8.70;;;2.03;;
11893;SDS011;6006;49.696;8.662;2024-01-25T10:18:09;5.07;;;1.50;;
11893;SDS011;6006;49.696;8.662;2024-01-25T10:20:38;11.90;;;2.47;;
11893;SDS011;6006;49.696;8.662;2024-01-25T10:23:06;5.47;;;1.83;;
11893;SDS011;6006;49.696;8.662;2024-01-25T10:25:34;8.60;;;2.00;;
11893;SDS011;6006;49.696;8.662;2024-01-25T10:28:01;2.60;;;1.47;;
11893;SDS011;6006;49.696;8.662;2024-01-25T10:30:30;3.87;;;1.20;;
11893;SDS011;6006;49.696;8.662;2024-01-25T10:32:59;13.37;;;2.67;;
11893;SDS011;6006;49.696;8.662;2024-01-25T10:35:26;10.80;;;2.70;;
11893;SDS011;6006;49.696;8.662;2024-01-25T10:37:54;7.73;;;2.50;;
11893;SDS011;6006;49.696;8.662;2024-01-25T10:40:22;6.67;;;2.20;;
11893;SDS011;6006;49.696;8.662;2024-01-25T10:42:50;9.83;;;2.13;;
11893;SDS011;6006;49.696;8.662;2024-01-25T10:45:17;5.70;;;1.60;;
11893;SDS011;6006;49.696;8.662;2024-01-25T10:47:44;10.93;;;2.57;;
11893;SDS011;6006;49.696;8.662;2024-01-25T10:50:15;11.97;;;2.27;;
11893;SDS011;6006;49.696;8.662;2024-01-25T10:52:41;7.23;;;1.83;;
11893;SDS011;6006;49.696;8.662;2024-01-25T10:55:09;2.47;;;1.50;;
11893;SDS011;6006;49.696;8.662;2024-01-25T10:57:42;9.07;;;2.47;;
11893;SDS011;6006;49.696;8.662;2024-01-25T11:00:11;4.63;;;1.80;;
11893;SDS011;6006;49.696;8.662;2024-01-25T11:02:40;8.83;;;1.80;;
11893;SDS011;6006;49.696;8.662;2024-01-25T11:05:10;10.53;;;2.67;;
11893;SDS011;6006;49.696;8.662;2024-01-25T11:07:42;7.40;;;2.40;;
11893;SDS011;6006;49.696;8.662;2024-01-25T11:10:11;11.60;;;1.77;;
11893;SDS011;6006;49.696;8.662;2024-01-25T11:12:48;4.70;;;1.57;;
11893;SDS011;6006;49.696;8.662;2024-01-25T11:15:17;4.43;;;1.37;;
11893;SDS011;6006;49.696;8.662;2024-01-25T11:17:51;7.73;;;2.30;;
11893;SDS011;6006;49.696;8.662;2024-01-25T11:20:20;2.57;;;1.67;;
11893;SDS011;6006;49.696;8.662;2024-01-25T11:22:48;9.57;;;1.97;;
11893;SDS011;6006;49.696;8.662;2024-01-25T11:25:19;10.27;;;2.17;;
11893;SDS011;6006;49.696;8.662;2024-01-25T11:27:49;10.87;;;2.23;;
11893;SDS011;6006;49.696;8.662;2024-01-25T11:30:17;3.70;;;1.47;;
11893;SDS011;6006;49.696;8.662;2024-01-25T11:32:45;7.03;;;1.80;;
11893;SDS011;6006;49.696;8.662;2024-01-25T11:35:13;5.87;;;1.87;;
11893;SDS011;6006;49.696;8.662;2024-01-25T11:37:42;8.03;;;1.77;;
11893;SDS011;6006;49.696;8.662;2024-01-25T11:40:10;6.37;;;2.03;;
11893;SDS011;6006;49.696;8.662;2024-01-25T11:42:38;9.47;;;1.83;;
11893;SDS011;6006;49.696;8.662;2024-01-25T11:45:07;8.87;;;2.57;;
11893;SDS011;6006;49.696;8.662;2024-01-25T11:47:36;8.37;;;1.20;;
11893;SDS011;6006;49.696;8.662;2024-01-25T11:50:03;8.53;;;2.30;;
11893;SDS011;6006;49.696;8.662;2024-01-25T11:52:32;3.93;;;1.93;;
11893;SDS011;6006;49.696;8.662;2024-01-25T11:54:59;8.57;;;2.73;;
11893;SDS011;6006;49.696;8.662;2024-01-25T11:57:25;3.13;;;1.47;;
11893;SDS011;6006;49.696;8.662;2024-01-25T11:59:54;7.43;;;1.93;;
11893;SDS011;6006;49.696;8.662;2024-01-25T12:02:23;3.33;;;1.40;;
11893;SDS011;6006;49.696;8.662;2024-01-25T12:04:50;8.57;;;1.40;;
11893;SDS011;6006;49.696;8.662;2024-01-25T12:07:19;7.70;;;2.03;;
11893;SDS011;6006;49.696;8.662;2024-01-25T12:09:56;4.13;;;1.33;;
11893;SDS011;6006;49.696;8.662;2024-01-25T12:12:23;6.03;;;1.90;;
11893;SDS011;6006;49.696;8.662;2024-01-25T12:14:50;6.73;;;1.40;;
11893;SDS011;6006;49.696;8.662;2024-01-25T12:17:18;3.77;;;1.67;;
11893;SDS011;6006;49.696;8.662;2024-01-25T12:19:46;6.60;;;1.77;;
11893;SDS011;6006;49.696;8.662;2024-01-25T12:22:19;4.63;;;2.00;;
11893;SDS011;6006;49.696;8.662;2024-01-25T12:24:46;8.87;;;2.07;;
11893;SDS011;6006;49.696;8.662;2024-01-25T12:27:14;7.83;;;1.87;;
11893;SDS011;6006;49.696;8.662;2024-01-25T12:29:41;5.37;;;2.07;;
11893;SDS011;6006;49.696;8.662;2024-01-25T12:32:09;8.87;;;1.97;;
11893;SDS011;6006;49.696;8.662;2024-01-25T12:34:36;10.87;;;1.90;;
11893;SDS011;6006;49.696;8.662;2024-01-25T12:37:05;9.37;;;2.20;;
11893;SDS011;6006;49.696;8.662;2024-01-25T12:39:32;6.53;;;2.10;;
11893;SDS011;6006;49.696;8.662;2024-01-25T12:41:59;5.20;;;1.77;;
11893;SDS011;6006;49.696;8.662;2024-01-25T12:44:26;8.77;;;2.00;;
11893;SDS011;6006;49.696;8.662;2024-01-25T12:46:53;5.07;;;2.00;;
11893;SDS011;6006;49.696;8.662;2024-01-25T12:49:20;6.93;;;1.83;;
11893;SDS011;6006;49.696;8.662;2024-01-25T12:51:48;4.17;;;1.30;;
11893;SDS011;6006;49.696;8.662;2024-01-25T12:54:16;7.43;;;2.17;;
11893;SDS011;6006;49.696;8.662;2024-01-25T12:56:43;7.50;;;2.07;;
11893;SDS011;6006;49.696;8.662;2024-01-25T12:59:10;5.90;;;1.60;;
11893;SDS011;6006;49.696;8.662;2024-01-25T13:01:37;10.27;;;2.00;;
11893;SDS011;6006;49.696;8.662;2024-01-25T13:04:04;11.03;;;2.30;;
11893;SDS011;6006;49.696;8.662;2024-01-25T13:06:31;4.23;;;1.27;;
11893;SDS011;6006;49.696;8.662;2024-01-25T13:08:58;5.67;;;1.50;;
11893;SDS011;6006;49.696;8.662;2024-01-25T13:11:26;8.83;;;2.30;;
11893;SDS011;6006;49.696;8.662;2024-01-25T13:13:53;6.50;;;1.80;;
11893;SDS011;6006;49.696;8.662;2024-01-25T13:16:20;7.80;;;1.60;;
11893;SDS011;6006;49.696;8.662;2024-01-25T13:18:46;5.27;;;1.50;;
11893;SDS011;6006;49.696;8.662;2024-01-25T13:21:13;7.97;;;2.00;;
11893;SDS011;6006;49.696;8.662;2024-01-25T13:23:40;5.90;;;1.70;;
11893;SDS011;6006;49.696;8.662;2024-01-25T13:26:07;6.33;;;2.93;;
11893;SDS011;6006;49.696;8.662;2024-01-25T13:28:35;6.60;;;2.10;;
11893;SDS011;6006;49.696;8.662;2024-01-25T13:31:02;9.23;;;2.30;;
11893;SDS011;6006;49.696;8.662;2024-01-25T13:33:31;6.17;;;1.63;;
11893;SDS011;6006;49.696;8.662;2024-01-25T13:35:58;9.70;;;2.43;;
11893;SDS011;6006;49.696;8.662;2024-01-25T13:38:25;5.97;;;2.03;;
11893;SDS011;6006;49.696;8.662;2024-01-25T13:40:52;7.87;;;2.00;;
11893;SDS011;6006;49.696;8.662;2024-01-25T13:43:20;4.97;;;1.73;;
11893;SDS011;6006;49.696;8.662;2024-01-25T13:45:49;12.27;;;3.07;;
11893;SDS011;6006;49.696;8.662;2024-01-25T13:48:15;5.70;;;2.17;;
11893;SDS011;6006;49.696;8.662;2024-01-25T13:50:44;6.10;;;2.03;;
11893;SDS011;6006;49.696;8.662;2024-01-25T13:53:11;6.70;;;1.63;;
11893;SDS011;6006;49.696;8.662;2024-01-25T13:55:37;7.67;;;2.03;;
11893;SDS011;6006;49.696;8.662;2024-01-25T13:58:04;3.60;;;1.50;;
11893;SDS011;6006;49.696;8.662;2024-01-25T14:00:31;5.53;;;1.50;;
11893;SDS011;6006;49.696;8.662;2024-01-25T14:02:59;4.60;;;1.87;;
11893;SDS011;6006;49.696;8.662;2024-01-25T14:05:26;8.03;;;1.77;;
11893;SDS011;6006;49.696;8.662;2024-01-25T14:07:53;9.70;;;1.93;;
11893;SDS011;6006;49.696;8.662;2024-01-25T14:10:20;6.27;;;1.70;;
11893;SDS011;6006;49.696;8.662;2024-01-25T14:12:47;6.77;;;1.50;;
11893;SDS011;6006;49.696;8.662;2024-01-25T14:15:15;5.27;;;1.70;;
11893;SDS011;6006;49.696;8.662;2024-01-25T14:17:42;4.00;;;1.60;;
11893;SDS011;6006;49.696;8.662;2024-01-25T14:20:10;6.20;;;2.03;;
11893;SDS011;6006;49.696;8.662;2024-01-25T14:22:38;9.33;;;2.60;;
11893;SDS011;6006;49.696;8.662;2024-01-25T14:25:05;6.33;;;2.40;;
11893;SDS011;6006;49.696;8.662;2024-01-25T14:27:32;6.97;;;2.00;;
11893;SDS011;6006;49.696;8.662;2024-01-25T14:29:59;4.53;;;1.73;;
11893;SDS011;6006;49.696;8.662;2024-01-25T14:32:26;5.97;;;2.10;;
11893;SDS011;6006;49.696;8.662;2024-01-25T14:34:53;7.33;;;2.00;;
11893;SDS011;6006;49.696;8.662;2024-01-25T14:37:21;4.93;;;2.03;;
11893;SDS011;6006;49.696;8.662;2024-01-25T14:39:48;6.70;;;2.17;;
11893;SDS011;6006;49.696;8.662;2024-01-25T14:42:15;5.43;;;1.97;;
11893;SDS011;6006;49.696;8.662;2024-01-25T14:44:43;11.10;;;2.00;;
11893;SDS011;6006;49.696;8.662;2024-01-25T14:47:10;4.47;;;1.90;;
11893;SDS011;6006;49.696;8.662;2024-01-25T14:49:39;7.67;;;2.30;;
11893;SDS011;6006;49.696;8.662;2024-01-25T14:52:05;11.70;;;2.37;;
11893;SDS011;6006;49.696;8.662;2024-01-25T14:54:34;11.33;;;1.90;;
11893;SDS011;6006;49.696;8.662;2024-01-25T14:57:01;8.53;;;1.97;;
11893;SDS011;6006;49.696;8.662;2024-01-25T14:59:28;6.67;;;1.70;;
11893;SDS011;6006;49.696;8.662;2024-01-25T15:01:55;6.30;;;1.57;;